Time;durP1;ratioP1;P1;durP2;ratioP2;P2;SDS_P1;SDS_P2;PMS_P1;PMS_P2;Temp;Humidity;BMP_temperature;BMP_pressure;BME280_temperature;BME280_humidity;BME280_pressure;Samples;Min_cycle;Max_cycle;Signal;HPM_P1;HPM_P2
2023/03/21 00:00:00;;;;;;;10.60;4.20;;;11.00;99.90;;;;;;5066176;28;20505;-72
2023/03/21 00:02:27;;;;;;;7.07;4.53;;;10.90;99.90;;;;;;5055604;28;20838;-71
2023/03/21 00:04:54;;;;;;;9.87;4.73;;;10.80;99.90;;;;;;5068972;28;20530;-72
2023/03/21 00:07:21;;;;;;;8.20;4.10;;;10.90;99.90;;;;;;5075740;28;20875;-72
2023/03/21 00:09:48;;;;;;;12.57;6.00;;;10.80;99.90;;;;;;5084606;28;20496;-72
2023/03/21 00:12:15;;;;;;;7.50;5.30;;;10.90;99.90;;;;;;5055163;28;20570;-72
2023/03/21 00:14:44;;;;;;;5.23;3.90;;;11.00;99.90;;;;;;5055519;28;20456;-72
2023/03/21 00:17:14;;;;;;;9.30;4.53;;;11.00;99.90;;;;;;5063988;28;20539;-72
2023/03/21 00:19:43;;;;;;;8.80;3.67;;;11.00;99.90;;;;;;5075301;28;20458;-73
2023/03/21 00:22:11;;;;;;;9.40;4.37;;;11.00;99.90;;;;;;5066128;28;20439;-73
2023/03/21 00:24:38;;;;;;;12.40;4.30;;;11.10;99.90;;;;;;5074994;28;20508;-72
2023/03/21 00:27:05;;;;;;;7.33;4.90;;;11.10;99.90;;;;;;5075139;28;20458;-72
2023/03/21 00:29:32;;;;;;;6.50;3.67;;;11.20;99.90;;;;;;5071635;28;20472;-72
2023/03/21 00:32:00;;;;;;;6.10;3.00;;;11.20;99.90;;;;;;5066817;28;20506;-72
2023/03/21 00:34:29;;;;;;;4.60;3.53;;;11.20;99.90;;;;;;5078819;28;20443;-72
2023/03/21 00:36:56;;;;;;;8.13;3.80;;;11.20;99.90;;;;;;5058602;28;20471;-72
2023/03/21 00:39:23;;;;;;;9.00;4.10;;;11.20;99.90;;;;;;5059276;28;20516;-72
2023/03/21 00:41:50;;;;;;;8.90;4.63;;;11.20;99.90;;;;;;5075092;28;20439;-72
2023/03/21 00:44:17;;;;;;;8.10;5.27;;;11.20;99.90;;;;;;5066818;28;20448;-72
2023/03/21 00:46:44;;;;;;;5.60;3.63;;;11.30;99.90;;;;;;5056145;28;20840;-72
2023/03/21 00:49:11;;;;;;;10.90;4.93;;;11.30;99.90;;;;;;5074773;28;20454;-72
2023/03/21 00:51:42;;;;;;;7.73;3.97;;;11.30;99.90;;;;;;5074540;28;20457;-72
2023/03/21 00:54:11;;;;;;;8.53;3.97;;;11.30;99.90;;;;;;5074878;28;20427;-72
2023/03/21 00:56:38;;;;;;;6.30;4.30;;;11.40;99.90;;;;;;5073821;28;20536;-72
2023/03/21 00:59:05;;;;;;;7.80;3.27;;;11.40;99.90;;;;;;5073971;28;20550;-72
2023/03/21 01:01:33;;;;;;;11.30;5.33;;;11.50;99.90;;;;;;5070708;28;20785;-72
2023/03/21 01:04:04;;;;;;;8.37;5.30;;;11.40;99.90;;;;;;5066927;28;20831;-72
2023/03/21 01:06:32;;;;;;;9.27;5.50;;;11.40;99.90;;;;;;5058274;28;20495;-72
2023/03/21 01:09:01;;;;;;;6.33;4.50;;;11.50;99.90;;;;;;5075276;28;20462;-72
2023/03/21 01:11:28;;;;;;;8.07;3.80;;;11.50;99.90;;;;;;5079965;28;20508;-72
2023/03/21 01:13:56;;;;;;;3.80;3.33;;;11.50;99.90;;;;;;5064081;28;20950;-72
2023/03/21 01:16:25;;;;;;;4.30;3.00;;;11.50;99.90;;;;;;5068936;28;20998;-72
2023/03/21 01:18:52;;;;;;;5.27;3.73;;;11.40;99.90;;;;;;5055275;28;20452;-72
2023/03/21 01:21:20;;;;;;;5.70;3.23;;;11.60;99.90;;;;;;5069679;28;20533;-72
2023/03/21 01:23:47;;;;;;;5.47;2.97;;;11.50;99.90;;;;;;5073379;28;20629;-72
2023/03/21 01:26:15;;;;;;;7.73;4.00;;;11.50;99.90;;;;;;5073412;28;20481;-72
2023/03/21 01:28:44;;;;;;;3.83;3.43;;;11.40;99.90;;;;;;5073699;28;20450;-72
2023/03/21 01:31:13;;;;;;;8.03;3.23;;;11.50;99.90;;;;;;5073133;28;20449;-72
2023/03/21 01:33:43;;;;;;;10.60;3.30;;;11.50;99.90;;;;;;5073933;28;20569;-72
2023/03/21 01:36:15;;;;;;;5.93;3.10;;;11.50;99.90;;;;;;5074455;28;20538;-72
2023/03/21 01:38:42;;;;;;;8.00;3.50;;;11.50;99.90;;;;;;5074553;28;20457;-72
2023/03/21 01:41:18;;;;;;;4.27;3.13;;;11.40;99.90;;;;;;5073570;28;20496;-72
2023/03/21 01:43:45;;;;;;;6.43;3.93;;;11.40;99.90;;;;;;5074344;28;20426;-72
2023/03/21 01:46:32;;;;;;;3.40;2.47;;;11.40;99.90;;;;;;5066245;28;20836;-72
2023/03/21 01:49:02;;;;;;;6.90;3.50;;;11.30;99.90;;;;;;5071100;28;20442;-72
2023/03/21 01:51:32;;;;;;;4.93;2.90;;;11.20;99.90;;;;;;5074771;28;20986;-72
2023/03/21 01:54:00;;;;;;;5.27;3.13;;;11.20;99.90;;;;;;5083881;28;20826;-72
2023/03/21 01:56:30;;;;;;;5.00;3.03;;;11.10;99.90;;;;;;5093187;28;20462;-72
2023/03/21 01:59:03;;;;;;;9.37;4.30;;;11.20;99.90;;;;;;5082173;28;20554;-72
2023/03/21 02:01:33;;;;;;;6.20;3.20;;;11.20;99.90;;;;;;5066519;28;20465;-72
2023/03/21 02:04:02;;;;;;;5.80;3.60;;;11.20;99.90;;;;;;5077949;28;20824;-72
2023/03/21 02:06:40;;;;;;;11.20;3.40;;;11.10;99.90;;;;;;5083686;28;20488;-72
2023/03/21 02:09:11;;;;;;;4.67;3.07;;;11.20;99.90;;;;;;5078692;28;20455;-72
2023/03/21 02:11:45;;;;;;;9.40;2.80;;;11.10;99.90;;;;;;5065092;28;20457;-72
2023/03/21 02:14:15;;;;;;;13.90;4.57;;;11.10;99.90;;;;;;5076550;28;20435;-72
2023/03/21 02:16:57;;;;;;;7.93;3.93;;;11.20;99.90;;;;;;5072746;28;21049;-72
2023/03/21 02:20:07;;;;;;;9.90;3.77;;;11.20;99.90;;;;;;5064920;28;20809;-72
2023/03/21 02:22:59;;;;;;;7.97;3.70;;;11.30;99.90;;;;;;5053393;28;20815;-72
2023/03/21 02:25:58;;;;;;;10.13;4.70;;;11.30;99.90;;;;;;5069109;28;20972;-72
2023/03/21 02:28:29;;;;;;;6.07;3.73;;;11.20;99.90;;;;;;5071227;28;20454;-72
2023/03/21 02:31:25;;;;;;;12.33;3.50;;;11.10;99.90;;;;;;5070280;28;20442;-72
2023/03/21 02:34:23;;;;;;;5.23;3.27;;;11.10;99.90;;;;;;5072356;28;21011;-72
2023/03/21 02:37:05;;;;;;;8.57;4.97;;;11.10;99.90;;;;;;5067527;28;21012;-72
2023/03/21 02:39:45;;;;;;;7.80;3.60;;;11.20;99.90;;;;;;5067517;28;20431;-72
2023/03/21 02:42:17;;;;;;;9.13;3.60;;;11.20;99.90;;;;;;5072770;28;20520;-72
2023/03/21 02:44:50;;;;;;;7.73;4.10;;;11.20;99.90;;;;;;5070960;28;20537;-72
2023/03/21 02:47:22;;;;;;;9.20;5.90;;;11.10;99.90;;;;;;5070649;28;21097;-72
2023/03/21 02:49:56;;;;;;;12.20;3.83;;;11.10;99.90;;;;;;5055400;28;20948;-72
2023/03/21 02:52:28;;;;;;;9.63;4.47;;;11.10;99.90;;;;;;5056027;28;20574;-72
2023/03/21 02:54:57;;;;;;;8.43;4.37;;;11.10;99.90;;;;;;5071802;28;20828;-72
2023/03/21 02:57:25;;;;;;;6.60;4.70;;;11.10;99.90;;;;;;5072349;28;20471;-73
2023/03/21 02:59:52;;;;;;;16.03;4.90;;;11.20;99.90;;;;;;5072458;28;20982;-72
2023/03/21 03:02:25;;;;;;;7.27;4.00;;;11.20;99.90;;;;;;5072627;28;20977;-72
2023/03/21 03:04:52;;;;;;;8.93;3.90;;;11.20;99.90;;;;;;5070941;28;20961;-72
2023/03/21 03:07:35;;;;;;;9.30;3.63;;;11.20;99.90;;;;;;5072096;28;20517;-72
2023/03/21 03:10:22;;;;;;;7.13;4.47;;;11.10;99.90;;;;;;5072294;28;20435;-73
2023/03/21 03:13:00;;;;;;;8.80;4.57;;;11.00;99.90;;;;;;5066342;28;21054;-72
2023/03/21 03:15:38;;;;;;;9.63;4.83;;;11.00;99.90;;;;;;5088724;28;20437;-72
2023/03/21 03:18:13;;;;;;;8.43;5.03;;;11.00;99.90;;;;;;5077746;28;20466;-72
2023/03/21 03:20:51;;;;;;;8.57;3.90;;;10.90;99.90;;;;;;5068326;28;21019;-72
2023/03/21 03:23:27;;;;;;;5.77;3.80;;;10.90;99.90;;;;;;5067972;28;20497;-72
2023/03/21 03:26:02;;;;;;;15.20;6.20;;;11.00;99.90;;;;;;5072432;28;20505;-71
2023/03/21 03:28:33;;;;;;;12.43;6.30;;;11.10;99.90;;;;;;5055432;28;20434;-71
2023/03/21 03:31:02;;;;;;;12.40;4.30;;;11.20;99.90;;;;;;5071477;28;20446;-71
2023/03/21 03:33:30;;;;;;;7.70;4.37;;;11.10;99.90;;;;;;5052283;28;20467;-71
2023/03/21 03:36:00;;;;;;;5.40;4.47;;;11.00;99.90;;;;;;5066557;28;20973;-71
2023/03/21 03:38:29;;;;;;;8.57;4.70;;;10.90;99.90;;;;;;5067533;28;20559;-71
2023/03/21 03:41:02;;;;;;;4.83;3.13;;;10.90;99.90;;;;;;5060674;28;21066;-71
2023/03/21 03:43:35;;;;;;;8.43;4.77;;;10.90;99.90;;;;;;5066601;28;20444;-71
2023/03/21 03:46:09;;;;;;;9.97;4.13;;;11.10;99.90;;;;;;5062659;28;20537;-72
2023/03/21 03:48:45;;;;;;;8.30;5.07;;;11.00;99.90;;;;;;5069778;28;20450;-72
2023/03/21 03:51:16;;;;;;;6.87;4.30;;;11.10;99.90;;;;;;5071916;28;20490;-71
2023/03/21 03:53:50;;;;;;;18.33;6.30;;;11.20;99.90;;;;;;5063303;28;20787;-72
2023/03/21 03:56:18;;;;;;;10.93;5.90;;;11.10;99.90;;;;;;5067680;28;20565;-72
2023/03/21 03:58:45;;;;;;;14.90;6.43;;;11.20;99.90;;;;;;5067905;28;20868;-72
2023/03/21 04:01:12;;;;;;;13.60;5.73;;;11.20;99.90;;;;;;5060107;28;20458;-72
2023/03/21 04:03:42;;;;;;;7.83;6.43;;;11.20;99.90;;;;;;5071440;28;20947;-72
2023/03/21 04:06:09;;;;;;;6.10;4.67;;;11.10;99.90;;;;;;5071566;28;20496;-72
2023/03/21 04:08:37;;;;;;;10.20;5.37;;;11.10;99.90;;;;;;5071837;28;20957;-72
2023/03/21 04:11:06;;;;;;;14.17;5.83;;;11.10;99.90;;;;;;5079985;28;20463;-71
2023/03/21 04:13:34;;;;;;;11.73;5.57;;;11.10;99.90;;;;;;5079385;28;20513;-71
2023/03/21 04:16:02;;;;;;;7.83;4.87;;;11.10;99.90;;;;;;5078076;28;20442;-71
2023/03/21 04:18:29;;;;;;;13.40;4.70;;;11.10;99.90;;;;;;5065302;28;20516;-72
2023/03/21 04:20:56;;;;;;;9.50;4.53;;;10.90;99.90;;;;;;5057129;28;20459;-71
2023/03/21 04:23:23;;;;;;;6.37;3.80;;;11.00;99.90;;;;;;5075746;28;20462;-72
2023/03/21 04:25:50;;;;;;;7.63;4.90;;;11.10;99.90;;;;;;5072117;28;21034;-71
2023/03/21 04:28:20;;;;;;;5.63;4.43;;;11.20;99.90;;;;;;5075153;28;20447;-72
2023/03/21 04:30:48;;;;;;;10.53;6.00;;;11.20;99.90;;;;;;5076205;28;20459;-72
2023/03/21 04:33:15;;;;;;;5.93;4.20;;;11.20;99.90;;;;;;5075393;28;21651;-72
2023/03/21 04:35:44;;;;;;;6.17;4.57;;;11.10;99.90;;;;;;5080512;28;20473;-72
2023/03/21 04:38:14;;;;;;;6.30;4.53;;;11.00;99.90;;;;;;5084460;28;20886;-72
2023/03/21 04:40:41;;;;;;;6.90;4.50;;;11.00;99.90;;;;;;5061845;28;20531;-72
2023/03/21 04:43:08;;;;;;;7.37;4.43;;;11.00;99.90;;;;;;5070850;28;20965;-72
2023/03/21 04:45:36;;;;;;;13.00;5.23;;;11.00;99.90;;;;;;5060154;28;20530;-72
2023/03/21 04:48:03;;;;;;;6.33;3.73;;;11.00;99.90;;;;;;5070848;28;20466;-72
2023/03/21 04:50:31;;;;;;;5.53;3.87;;;10.90;99.90;;;;;;5059506;28;20495;-72
2023/03/21 04:52:58;;;;;;;11.57;5.63;;;10.70;99.90;;;;;;5064948;28;20512;-72
2023/03/21 04:55:26;;;;;;;4.03;3.63;;;10.80;99.90;;;;;;5074656;28;20538;-72
2023/03/21 04:57:54;;;;;;;6.47;3.10;;;11.00;99.90;;;;;;5061126;28;20475;-72
2023/03/21 05:00:21;;;;;;;8.93;5.43;;;10.90;99.90;;;;;;5075248;28;20451;-72
2023/03/21 05:02:50;;;;;;;7.40;4.47;;;10.90;99.90;;;;;;5056948;28;20444;-72
2023/03/21 05:05:17;;;;;;;6.93;4.93;;;10.80;99.90;;;;;;5055996;28;20444;-72
2023/03/21 05:07:44;;;;;;;12.00;4.77;;;10.80;99.90;;;;;;5066468;28;20824;-72
2023/03/21 05:10:12;;;;;;;10.47;5.73;;;11.00;99.90;;;;;;5054173;28;20482;-72
2023/03/21 05:12:40;;;;;;;6.90;4.00;;;11.00;99.90;;;;;;5054571;28;20870;-72
2023/03/21 05:15:08;;;;;;;23.40;5.13;;;11.10;99.90;;;;;;5063645;28;20543;-72
2023/03/21 05:17:36;;;;;;;6.07;4.80;;;11.10;99.90;;;;;;5071183;28;20474;-72
2023/03/21 05:20:10;;;;;;;8.30;4.57;;;11.10;99.90;;;;;;5031067;28;20455;-71
2023/03/21 05:22:39;;;;;;;10.03;4.60;;;11.10;99.90;;;;;;5059583;28;20455;-72
2023/03/21 05:25:08;;;;;;;7.30;4.27;;;11.20;99.90;;;;;;5061047;28;20463;-71
2023/03/21 05:27:35;;;;;;;10.83;5.67;;;11.20;99.90;;;;;;5070517;28;20542;-71
2023/03/21 05:30:10;;;;;;;8.33;6.00;;;11.10;99.90;;;;;;5087881;28;20549;-72
2023/03/21 05:32:37;;;;;;;10.97;4.10;;;11.20;99.90;;;;;;5070724;28;20504;-71
2023/03/21 05:35:10;;;;;;;10.83;4.90;;;11.20;99.90;;;;;;5074089;28;20534;-73
2023/03/21 05:37:41;;;;;;;12.00;5.90;;;11.30;99.90;;;;;;5070176;28;20533;-71
2023/03/21 05:40:12;;;;;;;8.37;5.00;;;11.20;99.90;;;;;;5074127;28;20449;-71
2023/03/21 05:42:39;;;;;;;5.37;4.07;;;11.10;99.90;;;;;;5069573;28;20440;-71
2023/03/21 05:45:07;;;;;;;8.37;4.00;;;11.10;99.90;;;;;;5067326;28;20572;-72
2023/03/21 05:47:34;;;;;;;13.47;4.37;;;11.20;99.90;;;;;;5071111;28;20535;-72
2023/03/21 05:50:01;;;;;;;9.70;5.10;;;11.30;99.90;;;;;;5060239;28;20462;-72
2023/03/21 05:52:29;;;;;;;14.23;4.43;;;11.20;99.90;;;;;;5074017;28;20561;-72
2023/03/21 05:54:57;;;;;;;8.10;4.70;;;11.20;99.90;;;;;;5081622;28;20540;-72
2023/03/21 05:57:26;;;;;;;11.87;5.27;;;11.20;99.90;;;;;;5078112;28;20596;-72
2023/03/21 05:59:53;;;;;;;11.23;6.37;;;11.20;99.90;;;;;;5073891;28;20998;-73
2023/03/21 06:02:21;;;;;;;10.80;5.00;;;11.00;99.90;;;;;;5062673;28;20443;-73
2023/03/21 06:04:51;;;;;;;7.83;6.03;;;11.00;99.90;;;;;;5076006;28;20872;-72
2023/03/21 06:07:17;;;;;;;10.70;5.40;;;11.10;99.90;;;;;;5061556;28;20557;-72
2023/03/21 06:09:46;;;;;;;6.40;3.70;;;11.20;99.90;;;;;;5073097;28;20527;-72
2023/03/21 06:12:14;;;;;;;21.87;6.37;;;11.40;99.90;;;;;;5058675;28;20497;-72
2023/03/21 06:14:41;;;;;;;11.20;4.60;;;11.40;99.90;;;;;;5057399;28;20475;-72
2023/03/21 06:17:08;;;;;;;7.10;4.27;;;11.40;99.90;;;;;;5064718;28;20514;-72
2023/03/21 06:19:35;;;;;;;8.20;5.10;;;11.40;99.90;;;;;;5053578;28;20518;-72
2023/03/21 06:22:05;;;;;;;11.60;5.33;;;11.50;99.90;;;;;;5053372;28;20466;-72
2023/03/21 06:24:32;;;;;;;6.47;4.33;;;11.40;99.90;;;;;;5064711;28;20437;-72
2023/03/21 06:27:00;;;;;;;8.07;5.13;;;11.20;99.90;;;;;;5073534;28;20470;-72
2023/03/21 06:29:27;;;;;;;16.97;4.67;;;11.30;99.90;;;;;;5072900;28;20466;-72
2023/03/21 06:31:57;;;;;;;8.30;5.17;;;11.40;99.90;;;;;;5072569;28;20533;-72
2023/03/21 06:34:24;;;;;;;7.63;4.10;;;11.40;99.90;;;;;;5070435;28;20471;-72
2023/03/21 06:36:53;;;;;;;7.17;4.50;;;11.40;99.90;;;;;;5078319;28;20461;-72
2023/03/21 06:39:21;;;;;;;8.53;4.60;;;11.50;99.90;;;;;;5063953;28;20439;-72
2023/03/21 06:41:48;;;;;;;7.03;4.63;;;11.50;99.90;;;;;;5077818;28;20485;-75
2023/03/21 06:44:16;;;;;;;11.03;4.43;;;11.30;99.90;;;;;;5083215;28;20435;-71
2023/03/21 06:46:44;;;;;;;7.63;4.47;;;11.30;99.90;;;;;;5083404;28;20475;-71
2023/03/21 06:49:12;;;;;;;8.17;5.50;;;11.20;99.90;;;;;;5073726;28;20541;-71
2023/03/21 06:51:39;;;;;;;13.60;4.70;;;11.10;99.90;;;;;;5073032;28;20497;-71
2023/03/21 06:54:06;;;;;;;8.60;5.10;;;11.20;99.90;;;;;;5075000;28;20540;-72
2023/03/21 06:56:33;;;;;;;13.97;5.63;;;11.30;99.90;;;;;;5074081;28;20470;-71
2023/03/21 06:59:04;;;;;;;8.97;4.83;;;11.30;99.90;;;;;;5073513;28;20446;-72
2023/03/21 07:01:33;;;;;;;16.13;6.93;;;11.30;99.90;;;;;;5072865;28;20447;-72
2023/03/21 07:04:00;;;;;;;7.10;4.23;;;11.40;99.90;;;;;;5072587;28;20500;-72
2023/03/21 07:06:27;;;;;;;11.80;6.40;;;11.20;99.90;;;;;;5069542;28;20512;-72
2023/03/21 07:08:56;;;;;;;6.73;4.33;;;11.10;99.90;;;;;;5057380;28;20511;-72
2023/03/21 07:11:23;;;;;;;7.40;4.60;;;11.00;99.90;;;;;;5078736;28;20441;-72
2023/03/21 07:13:51;;;;;;;8.07;5.60;;;11.00;99.90;;;;;;5056559;28;20529;-72
2023/03/21 07:16:20;;;;;;;17.20;6.77;;;11.00;99.90;;;;;;5067977;28;20478;-72
2023/03/21 07:18:48;;;;;;;12.87;5.67;;;11.10;99.90;;;;;;5055775;28;21018;-72
2023/03/21 07:21:15;;;;;;;17.80;6.40;;;11.10;99.90;;;;;;5052687;28;20825;-72
2023/03/21 07:23:44;;;;;;;7.17;4.73;;;11.30;99.90;;;;;;5052613;28;20439;-72
2023/03/21 07:26:14;;;;;;;13.30;5.10;;;11.40;99.90;;;;;;5050973;28;20490;-73
2023/03/21 07:28:42;;;;;;;9.73;6.73;;;11.20;99.90;;;;;;5059671;28;20458;-72
2023/03/21 07:31:13;;;;;;;9.10;4.17;;;11.20;99.90;;;;;;5072105;28;20458;-72
2023/03/21 07:33:40;;;;;;;12.80;6.70;;;11.20;99.90;;;;;;5072410;28;20557;-72
2023/03/21 07:36:15;;;;;;;14.10;5.37;;;11.20;99.90;;;;;;5071332;28;20832;-72
2023/03/21 07:38:43;;;;;;;10.13;5.00;;;11.40;99.90;;;;;;5072007;28;20970;-72
2023/03/21 07:41:10;;;;;;;8.60;4.63;;;11.30;99.90;;;;;;5074713;28;20470;-72
2023/03/21 07:43:37;;;;;;;9.80;5.90;;;11.50;99.90;;;;;;5078390;28;20438;-72
2023/03/21 07:46:05;;;;;;;9.17;5.33;;;11.60;99.90;;;;;;5065034;28;20443;-72
2023/03/21 07:48:32;;;;;;;9.70;4.80;;;11.60;99.90;;;;;;5055850;28;20443;-72
2023/03/21 07:51:01;;;;;;;12.37;6.07;;;11.60;99.90;;;;;;5068929;28;20438;-72
2023/03/21 07:53:32;;;;;;;8.87;7.33;;;11.70;99.90;;;;;;5059623;28;20506;-72
2023/03/21 07:56:02;;;;;;;10.60;5.77;;;11.80;99.90;;;;;;5075738;28;20427;-73
2023/03/21 07:58:32;;;;;;;11.43;4.60;;;11.80;99.90;;;;;;5076261;28;20442;-72
2023/03/21 08:01:00;;;;;;;7.37;4.33;;;11.90;99.90;;;;;;5075838;28;20478;-72
2023/03/21 08:03:28;;;;;;;10.83;4.00;;;11.90;99.90;;;;;;5076156;28;20477;-72
2023/03/21 08:05:55;;;;;;;9.53;4.40;;;12.00;99.90;;;;;;5075983;28;20445;-72
2023/03/21 08:08:22;;;;;;;8.87;6.20;;;12.00;99.90;;;;;;5075315;28;20442;-72
2023/03/21 08:10:51;;;;;;;4.47;3.73;;;11.90;99.90;;;;;;5072892;28;20844;-72
2023/03/21 08:13:18;;;;;;;13.60;6.67;;;11.90;99.90;;;;;;5059549;28;20443;-72
2023/03/21 08:15:45;;;;;;;4.33;3.93;;;11.80;99.90;;;;;;5062922;28;20569;-72
2023/03/21 08:18:12;;;;;;;10.33;3.57;;;11.70;99.90;;;;;;5075173;28;20474;-72
2023/03/21 08:20:40;;;;;;;10.93;4.70;;;11.60;99.90;;;;;;5075585;28;20455;-72
2023/03/21 08:23:07;;;;;;;4.90;3.30;;;11.60;99.90;;;;;;5075707;28;20450;-72
2023/03/21 08:25:35;;;;;;;7.40;4.20;;;11.60;99.90;;;;;;5075256;28;20447;-72
2023/03/21 08:28:04;;;;;;;5.00;4.30;;;11.60;99.90;;;;;;5075312;28;20471;-72
2023/03/21 08:30:31;;;;;;;9.10;4.53;;;11.70;99.90;;;;;;5080544;28;20467;-73
2023/03/21 08:32:59;;;;;;;9.20;3.50;;;11.80;99.90;;;;;;5075792;28;20542;-72
2023/03/21 08:35:26;;;;;;;6.60;3.90;;;11.90;99.90;;;;;;5075156;28;20481;-72
2023/03/21 08:37:53;;;;;;;10.87;4.00;;;12.00;99.90;;;;;;5075130;28;20498;-72
2023/03/21 08:40:21;;;;;;;5.53;4.40;;;11.90;99.90;;;;;;5058375;28;20535;-72
2023/03/21 08:42:50;;;;;;;6.87;4.53;;;11.90;99.90;;;;;;5074032;28;20442;-72
2023/03/21 08:45:19;;;;;;;4.80;3.53;;;12.10;99.90;;;;;;5084631;28;20469;-72
2023/03/21 08:47:46;;;;;;;7.30;4.60;;;12.10;99.90;;;;;;5083433;28;20975;-72
2023/03/21 08:50:16;;;;;;;5.60;3.50;;;12.10;99.90;;;;;;5084247;28;20478;-72
2023/03/21 08:52:43;;;;;;;8.03;3.80;;;12.30;99.90;;;;;;5075474;28;20458;-72
2023/03/21 08:55:11;;;;;;;5.93;3.77;;;12.30;99.90;;;;;;5074643;28;20570;-72
2023/03/21 08:57:38;;;;;;;4.77;3.03;;;12.10;99.90;;;;;;5075176;28;21061;-71
2023/03/21 09:00:11;;;;;;;8.87;3.50;;;12.30;99.90;;;;;;5061341;28;20479;-72
2023/03/21 09:02:41;;;;;;;7.70;4.00;;;12.20;99.90;;;;;;5076183;28;20429;-72
2023/03/21 09:05:11;;;;;;;5.60;3.20;;;12.20;99.90;;;;;;5072816;28;20503;-72
2023/03/21 09:07:41;;;;;;;11.83;3.67;;;12.30;99.90;;;;;;5075282;28;20820;-72
2023/03/21 09:10:10;;;;;;;7.60;4.20;;;12.20;99.90;;;;;;5074425;28;20427;-72
2023/03/21 09:12:37;;;;;;;4.33;3.13;;;12.20;99.90;;;;;;5074487;28;20537;-72
2023/03/21 09:15:06;;;;;;;8.53;3.40;;;12.30;99.90;;;;;;5073742;28;20532;-72
2023/03/21 09:17:35;;;;;;;7.73;3.90;;;12.20;99.90;;;;;;5074136;28;20817;-72
2023/03/21 09:20:10;;;;;;;9.23;4.33;;;12.30;99.90;;;;;;5073957;28;20970;-72
2023/03/21 09:22:37;;;;;;;4.50;3.43;;;12.30;99.90;;;;;;5074443;28;20472;-72
2023/03/21 09:25:10;;;;;;;9.63;4.00;;;12.40;99.90;;;;;;5073240;28;20500;-73
2023/03/21 09:27:37;;;;;;;6.10;3.53;;;12.50;99.90;;;;;;5074467;28;20466;-72
2023/03/21 09:30:06;;;;;;;8.73;3.30;;;12.50;99.90;;;;;;5073995;28;20421;-72
2023/03/21 09:32:34;;;;;;;12.63;3.33;;;12.60;99.90;;;;;;5073920;28;20474;-72
2023/03/21 09:35:04;;;;;;;10.23;3.73;;;12.60;99.90;;;;;;5073639;28;20482;-72
2023/03/21 09:37:31;;;;;;;3.90;2.60;;;12.60;99.90;;;;;;5072288;28;20853;-72
2023/03/21 09:39:59;;;;;;;2.70;2.27;;;12.50;99.90;;;;;;5073513;28;20450;-72
2023/03/21 09:42:36;;;;;;;3.00;2.70;;;12.50;99.90;;;;;;5073843;28;20922;-72
2023/03/21 09:45:12;;;;;;;6.90;3.50;;;12.40;99.90;;;;;;5073527;28;20454;-72
2023/03/21 09:47:48;;;;;;;3.17;2.43;;;12.40;99.90;;;;;;5070051;28;20516;-73
2023/03/21 09:50:20;;;;;;;7.90;3.33;;;12.50;99.90;;;;;;5074069;28;20439;-72
2023/03/21 09:52:54;;;;;;;5.50;2.77;;;12.50;99.90;;;;;;5076813;28;20427;-72
2023/03/21 09:55:29;;;;;;;7.13;3.57;;;12.40;99.90;;;;;;5076748;28;20967;-72
2023/03/21 09:58:05;;;;;;;4.70;2.90;;;12.40;99.90;;;;;;5064929;28;20906;-72
2023/03/21 10:00:36;;;;;;;3.90;3.50;;;12.40;99.90;;;;;;5070137;28;20529;-72
2023/03/21 10:03:07;;;;;;;5.90;3.33;;;12.30;99.90;;;;;;5072496;28;20450;-72
2023/03/21 10:05:43;;;;;;;4.70;3.03;;;12.30;99.90;;;;;;5072309;28;20466;-72
2023/03/21 10:08:16;;;;;;;9.43;2.53;;;12.40;99.90;;;;;;5073408;28;20458;-72
2023/03/21 10:10:48;;;;;;;4.97;3.20;;;12.50;99.90;;;;;;5075899;28;20427;-72
2023/03/21 10:13:19;;;;;;;4.37;2.93;;;12.60;99.90;;;;;;5061236;28;20456;-72
2023/03/21 10:15:46;;;;;;;6.70;3.07;;;12.60;99.90;;;;;;5067638;28;20538;-72
2023/03/21 10:18:21;;;;;;;11.17;4.07;;;12.60;99.90;;;;;;5074570;28;20482;-72
2023/03/21 10:20:51;;;;;;;8.63;5.00;;;12.60;99.90;;;;;;5074076;28;20539;-72
2023/03/21 10:23:20;;;;;;;6.57;3.57;;;12.80;99.90;;;;;;5053507;28;20440;-72
2023/03/21 10:25:50;;;;;;;5.60;3.53;;;12.70;99.90;;;;;;5071610;28;20461;-72
2023/03/21 10:28:20;;;;;;;5.40;3.10;;;12.80;99.90;;;;;;5073450;28;20447;-73
2023/03/21 10:30:50;;;;;;;4.07;2.50;;;13.00;99.90;;;;;;5072985;28;20453;-72
2023/03/21 10:33:20;;;;;;;5.10;3.33;;;13.10;99.90;;;;;;5068823;28;20466;-72
2023/03/21 10:35:53;;;;;;;5.40;3.17;;;13.20;99.90;;;;;;5055822;28;20481;-72
2023/03/21 10:38:24;;;;;;;9.13;3.40;;;13.10;99.90;;;;;;5069745;28;20458;-72
2023/03/21 10:40:51;;;;;;;6.53;3.60;;;13.10;99.90;;;;;;5072916;28;20446;-72
2023/03/21 10:43:30;;;;;;;5.43;2.90;;;13.30;99.90;;;;;;5073190;28;20820;-72
2023/03/21 10:45:57;;;;;;;5.27;2.97;;;13.40;99.90;;;;;;5055877;28;21021;-72
2023/03/21 10:48:25;;;;;;;5.00;3.63;;;13.40;99.90;;;;;;5052673;28;20443;-72
2023/03/21 10:50:56;;;;;;;4.93;2.90;;;13.40;99.90;;;;;;5052327;28;20534;-72
2023/03/21 10:53:30;;;;;;;2.67;2.00;;;13.10;99.90;;;;;;5066470;28;20435;-72
2023/03/21 10:55:59;;;;;;;5.43;3.10;;;13.00;99.90;;;;;;5086831;28;20486;-73
2023/03/21 10:58:29;;;;;;;6.43;3.53;;;13.10;99.90;;;;;;5077182;28;20447;-72
2023/03/21 11:00:58;;;;;;;4.40;2.00;;;13.00;99.90;;;;;;5088676;28;20451;-72
2023/03/21 11:03:30;;;;;;;3.10;1.50;;;12.80;99.90;;;;;;5073266;28;20439;-72
2023/03/21 11:06:02;;;;;;;4.70;2.67;;;12.80;99.90;;;;;;5072522;28;20901;-72
2023/03/21 11:08:30;;;;;;;3.50;1.93;;;13.00;99.90;;;;;;5072268;28;20834;-72
2023/03/21 11:11:02;;;;;;;4.63;3.30;;;13.10;99.90;;;;;;5075241;28;20482;-72
2023/03/21 11:13:37;;;;;;;3.17;2.90;;;13.10;99.90;;;;;;5076830;28;20518;-73
2023/03/21 11:16:10;;;;;;;4.60;2.50;;;13.30;99.90;;;;;;5072858;28;20580;-72
2023/03/21 11:18:42;;;;;;;7.00;2.00;;;13.30;99.90;;;;;;5079857;28;20953;-72
2023/03/21 11:21:13;;;;;;;6.50;3.37;;;13.60;99.90;;;;;;5091507;28;20476;-71
2023/03/21 11:23:45;;;;;;;2.23;1.90;;;13.30;99.90;;;;;;5073046;28;20504;-71
2023/03/21 11:26:19;;;;;;;5.57;2.50;;;13.20;99.90;;;;;;5075988;28;20488;-71
2023/03/21 11:28:47;;;;;;;3.10;2.10;;;13.20;99.90;;;;;;5076086;28;20435;-71
2023/03/21 11:31:14;;;;;;;2.70;1.77;;;13.30;99.90;;;;;;5076310;28;20534;-71
2023/03/21 11:33:52;;;;;;;4.33;2.47;;;13.30;99.90;;;;;;5075929;28;20524;-71
2023/03/21 11:36:33;;;;;;;3.13;2.00;;;13.20;99.90;;;;;;5076174;28;20482;-71
2023/03/21 11:39:12;;;;;;;3.87;2.73;;;13.30;99.90;;;;;;5075666;28;20962;-71
2023/03/21 11:41:42;;;;;;;3.77;3.17;;;13.20;99.90;;;;;;5054677;28;20443;-72
2023/03/21 11:44:27;;;;;;;2.97;1.77;;;13.30;99.90;;;;;;5055944;28;20526;-71
2023/03/21 11:46:54;;;;;;;7.47;2.77;;;13.50;99.90;;;;;;5067282;28;20516;-71
2023/03/21 11:49:22;;;;;;;6.93;2.60;;;13.80;99.90;;;;;;5076021;28;20438;-71
2023/03/21 11:52:00;;;;;;;5.80;3.00;;;13.90;99.90;;;;;;5075384;28;21004;-71
2023/03/21 11:54:37;;;;;;;3.53;2.60;;;14.10;99.90;;;;;;5081945;28;20430;-71
2023/03/21 11:57:11;;;;;;;3.50;2.00;;;14.00;99.90;;;;;;5077173;28;20501;-71
2023/03/21 11:59:48;;;;;;;5.63;2.67;;;13.90;99.90;;;;;;5077908;28;20430;-71
2023/03/21 12:02:42;;;;;;;2.77;1.93;;;13.90;99.90;;;;;;5059256;28;20446;-71
2023/03/21 12:05:18;;;;;;;3.30;1.60;;;14.00;99.90;;;;;;5081064;28;20490;-72
2023/03/21 12:08:00;;;;;;;3.23;1.93;;;13.80;99.90;;;;;;5087891;28;20505;-72
2023/03/21 12:10:33;;;;;;;6.40;2.63;;;13.80;99.90;;;;;;5067928;28;20955;-72
2023/03/21 12:13:18;;;;;;;3.57;3.27;;;13.80;99.90;;;;;;5075342;28;20419;-72
2023/03/21 12:15:57;;;;;;;13.93;2.27;;;13.90;99.90;;;;;;5067538;28;20561;-72
2023/03/21 12:18:49;;;;;;;8.63;3.00;;;14.30;99.90;;;;;;5075675;28;20864;-72
2023/03/21 12:21:23;;;;;;;4.43;2.30;;;14.50;99.90;;;;;;5082094;28;20455;-73
2023/03/21 12:24:02;;;;;;;3.60;2.70;;;14.70;99.90;;;;;;5056160;28;20431;-72
2023/03/21 12:26:36;;;;;;;3.17;2.40;;;15.00;99.90;;;;;;5066895;28;20893;-72
2023/03/21 12:29:20;;;;;;;4.30;2.60;;;15.10;99.90;;;;;;5072066;28;20546;-73
2023/03/21 12:31:59;;;;;;;3.17;2.20;;;14.70;99.90;;;;;;5055140;28;20509;-72
2023/03/21 12:34:40;;;;;;;4.30;2.73;;;14.50;99.90;;;;;;5071034;28;20442;-72
2023/03/21 12:37:18;;;;;;;1.90;1.53;;;14.60;99.90;;;;;;5074834;28;21056;-72
2023/03/21 12:39:49;;;;;;;11.80;3.90;;;14.40;99.90;;;;;;5074285;28;20446;-72
2023/03/21 12:42:52;;;;;;;5.37;2.57;;;14.40;99.90;;;;;;5074934;28;20466;-72
2023/03/21 12:45:23;;;;;;;5.37;3.23;;;14.50;99.90;;;;;;5075464;28;20989;-72
2023/03/21 12:47:55;;;;;;;5.03;2.53;;;14.60;99.90;;;;;;5074731;28;20812;-72
2023/03/21 12:50:26;;;;;;;3.60;2.30;;;14.60;99.90;;;;;;5078308;28;20898;-73
2023/03/21 12:52:55;;;;;;;6.80;3.43;;;14.80;99.90;;;;;;5085682;28;20431;-72
2023/03/21 12:55:26;;;;;;;2.70;1.83;;;14.60;99.90;;;;;;5074570;28;21041;-72
2023/03/21 12:58:01;;;;;;;6.87;3.10;;;14.70;99.90;;;;;;5074817;28;20876;-72
2023/03/21 13:00:35;;;;;;;2.30;1.93;;;14.80;99.90;;;;;;5073779;28;20438;-72
2023/03/21 13:03:08;;;;;;;4.17;2.20;;;14.50;99.90;;;;;;5072860;28;20423;-72